createdAt,value
2022-08-22T00:01:03.929Z,2.67
2022-08-22T00:02:57.557Z,2.90
2022-08-22T00:03:00.232Z,1.97
2022-08-22T00:03:46.714Z,2.40
2022-08-22T00:06:40.374Z,2.60
2022-08-22T00:09:31.973Z,2.07
2022-08-22T00:12:03.949Z,2.70
2022-08-22T00:14:56.470Z,2.80
2022-08-22T00:17:22.779Z,2.63
2022-08-22T00:20:01.805Z,2.40
2022-08-22T00:23:12.900Z,2.70
2022-08-22T00:25:47.627Z,2.70
2022-08-22T00:28:21.194Z,2.53
2022-08-22T00:30:58.183Z,2.63
2022-08-22T00:33:38.953Z,2.37
2022-08-22T00:36:13.645Z,2.60
2022-08-22T00:38:48.316Z,2.33
2022-08-22T00:41:30.093Z,2.60
2022-08-22T00:44:05.941Z,2.50
2022-08-22T00:46:52.823Z,2.40
2022-08-22T00:49:45.047Z,2.83
2022-08-22T00:52:14.390Z,2.80
2022-08-22T00:55:01.471Z,2.50
2022-08-22T00:57:39.275Z,3.00
2022-08-22T01:00:38.618Z,2.87
2022-08-22T01:03:18.560Z,2.77
2022-08-22T01:06:09.795Z,2.40
2022-08-22T01:09:14.012Z,2.73
2022-08-22T01:12:09.452Z,2.73
2022-08-22T01:14:48.237Z,3.17
2022-08-22T01:17:38.944Z,2.70
2022-08-22T01:20:23.860Z,3.17
2022-08-22T01:23:36.160Z,2.70
2022-08-22T01:26:41.102Z,2.60
2022-08-22T01:29:52.591Z,2.77
2022-08-22T01:32:40.608Z,2.67
2022-08-22T01:35:29.228Z,2.57
2022-08-22T01:38:22.863Z,2.80
2022-08-22T01:40:53.817Z,2.67
2022-08-22T01:43:59.263Z,2.87
2022-08-22T01:46:46.081Z,3.63
2022-08-22T01:49:34.255Z,3.23
2022-08-22T01:52:20.594Z,2.60
2022-08-22T01:54:55.700Z,2.70
2022-08-22T01:57:23.255Z,2.43
2022-08-22T01:59:52.941Z,2.70
2022-08-22T02:02:40.527Z,3.13
2022-08-22T02:05:25.706Z,3.17
2022-08-22T02:08:03.829Z,2.90
2022-08-22T02:10:54.609Z,2.93
2022-08-22T02:13:49.949Z,4.03
2022-08-22T02:16:37.594Z,3.00
2022-08-22T02:19:10.127Z,2.80
2022-08-22T02:21:47.413Z,2.80
2022-08-22T02:24:24.906Z,2.93
2022-08-22T02:27:04.053Z,3.07
2022-08-22T02:29:46.597Z,2.60
2022-08-22T02:32:30.043Z,2.70
2022-08-22T02:35:05.600Z,2.70
2022-08-22T02:37:32.059Z,2.67
2022-08-22T02:40:14.277Z,3.30
2022-08-22T02:42:57.243Z,3.33
2022-08-22T02:45:43.469Z,3.37
2022-08-22T02:48:32.439Z,4.03
2022-08-22T02:51:20.590Z,3.30
2022-08-22T02:53:57.573Z,2.93
2022-08-22T02:56:34.958Z,2.63
2022-08-22T02:59:33.230Z,3.20
2022-08-22T03:02:27.725Z,3.10
2022-08-22T03:05:01.390Z,2.93
2022-08-22T03:07:43.691Z,2.97
2022-08-22T03:10:16.447Z,3.10
2022-08-22T03:13:06.722Z,3.60
2022-08-22T03:16:23.625Z,2.60
2022-08-22T03:19:18.542Z,2.83
2022-08-22T03:22:01.131Z,2.70
2022-08-22T03:24:43.223Z,2.70
2022-08-22T03:27:32.059Z,3.13
2022-08-22T03:30:12.309Z,2.47
2022-08-22T03:33:15.271Z,2.80
2022-08-22T03:35:42.112Z,3.20
2022-08-22T03:38:26.108Z,3.20
2022-08-22T03:41:26.995Z,2.90
2022-08-22T03:44:23.010Z,3.57
2022-08-22T03:46:49.378Z,2.87
2022-08-22T03:49:33.858Z,3.13
2022-08-22T03:52:34.206Z,3.80
2022-08-22T03:55:40.462Z,3.20
2022-08-22T03:58:49.195Z,2.70
2022-08-22T04:01:35.015Z,3.50
2022-08-22T04:04:10.318Z,3.40
2022-08-22T04:06:56.549Z,3.20
2022-08-22T04:09:42.819Z,3.17
2022-08-22T04:12:26.018Z,2.77
2022-08-22T04:15:10.816Z,3.43
2022-08-22T04:17:49.100Z,3.03
2022-08-22T04:20:37.884Z,3.50
2022-08-22T04:23:26.637Z,3.20
2022-08-22T04:25:58.528Z,3.20
2022-08-22T04:28:34.189Z,3.50
2022-08-22T04:31:12.011Z,3.40
2022-08-22T04:33:53.241Z,3.50
2022-08-22T04:36:39.872Z,3.13
2022-08-22T04:39:40.166Z,3.20
2022-08-22T04:42:40.299Z,3.63
2022-08-22T04:45:16.894Z,3.53
2022-08-22T04:47:54.031Z,3.23
2022-08-22T04:50:43.281Z,3.20
2022-08-22T04:53:32.368Z,3.50
2022-08-22T04:56:07.282Z,3.63
2022-08-22T04:58:49.364Z,3.40
2022-08-22T05:01:46.881Z,2.80
2022-08-22T05:04:28.238Z,3.57
2022-08-22T05:07:14.442Z,3.40
2022-08-22T05:09:46.359Z,3.50
2022-08-22T05:12:22.091Z,3.70
2022-08-22T05:14:55.211Z,2.97
2022-08-22T05:17:29.469Z,3.03
2022-08-22T05:20:02.481Z,4.10
2022-08-22T05:22:36.070Z,3.50
2022-08-22T05:25:08.544Z,3.50
2022-08-22T05:27:41.824Z,3.87
2022-08-22T05:30:13.357Z,4.10
2022-08-22T05:32:55.699Z,3.30
2022-08-22T05:35:50.155Z,3.47
2022-08-22T05:38:23.905Z,4.60
2022-08-22T05:40:59.297Z,3.60
2022-08-22T05:43:27.033Z,3.53
2022-08-22T05:45:57.937Z,3.70
2022-08-22T05:48:40.384Z,4.27
2022-08-22T05:51:21.309Z,3.73
2022-08-22T05:54:07.975Z,4.00
2022-08-22T05:56:44.987Z,3.83
2022-08-22T05:59:29.581Z,4.37
2022-08-22T06:02:14.035Z,3.70
2022-08-22T06:05:00.799Z,3.67
2022-08-22T06:07:45.277Z,4.50
2022-08-22T06:10:22.816Z,4.70
2022-08-22T06:13:05.961Z,3.67
2022-08-22T06:15:48.481Z,3.83
2022-08-22T06:18:19.283Z,3.70
2022-08-22T06:20:58.546Z,4.00
2022-08-22T06:23:29.382Z,3.50
2022-08-22T06:25:59.425Z,3.97
2022-08-22T06:28:32.450Z,4.17
2022-08-22T06:31:01.206Z,3.63
2022-08-22T06:33:30.857Z,3.63
2022-08-22T06:36:32.505Z,3.87
2022-08-22T06:39:05.516Z,3.20
2022-08-22T06:41:36.662Z,3.43
2022-08-22T06:44:05.554Z,3.43
2022-08-22T06:46:36.213Z,3.97
2022-08-22T06:49:05.734Z,3.50
2022-08-22T06:51:34.227Z,3.40
2022-08-22T06:54:03.792Z,3.13
2022-08-22T06:56:35.615Z,3.60
2022-08-22T06:59:07.709Z,3.37
2022-08-22T07:01:39.680Z,3.17
2022-08-22T07:04:09.002Z,3.27
2022-08-22T07:06:42.492Z,3.93
2022-08-22T07:09:28.687Z,3.60
2022-08-22T07:11:57.574Z,3.33
2022-08-22T07:14:41.539Z,3.37
2022-08-22T07:17:15.321Z,3.17
2022-08-22T07:20:07.944Z,3.23
2022-08-22T07:22:37.365Z,2.93
2022-08-22T07:25:09.135Z,3.27
2022-08-22T07:27:53.702Z,3.17
2022-08-22T07:30:27.851Z,3.13
2022-08-22T07:33:25.202Z,2.50
2022-08-22T07:35:54.167Z,4.00
2022-08-22T07:38:23.733Z,2.70
2022-08-22T07:41:32.753Z,3.40
2022-08-22T07:44:22.108Z,2.53
2022-08-22T07:46:55.875Z,2.70
2022-08-22T07:49:27.130Z,3.03
2022-08-22T07:51:58.760Z,2.90
2022-08-22T07:54:36.303Z,3.60
2022-08-22T07:57:07.740Z,4.23
2022-08-22T07:59:37.245Z,4.73
2022-08-22T08:02:07.796Z,3.70
2022-08-22T08:04:40.211Z,4.27
2022-08-22T08:07:09.917Z,3.80
2022-08-22T08:09:49.704Z,3.80
2022-08-22T08:12:19.441Z,3.77
2022-08-22T08:14:52.125Z,3.50
2022-08-22T08:17:39.146Z,3.53
2022-08-22T08:20:10.333Z,3.60
2022-08-22T08:22:38.557Z,3.87
2022-08-22T08:25:07.588Z,3.73
2022-08-22T08:27:56.344Z,3.13
2022-08-22T08:30:34.715Z,3.53
2022-08-22T08:33:24.889Z,3.60
2022-08-22T08:36:26.605Z,3.33
2022-08-22T08:39:10.138Z,3.53
2022-08-22T08:42:08.818Z,3.00
2022-08-22T08:44:37.912Z,3.60
2022-08-22T08:47:19.865Z,4.30
2022-08-22T08:50:15.485Z,3.73
2022-08-22T08:53:11.762Z,3.43
2022-08-22T08:55:51.660Z,4.00
2022-08-22T08:58:31.813Z,3.20
2022-08-22T09:01:30.977Z,3.30
2022-08-22T09:04:16.064Z,3.57
2022-08-22T09:07:27.045Z,3.37
2022-08-22T09:10:31.523Z,3.93
2022-08-22T09:13:23.721Z,3.17
2022-08-22T09:16:25.852Z,3.20
2022-08-22T09:18:58.582Z,3.40
2022-08-22T09:21:43.716Z,3.13
2022-08-22T09:24:12.986Z,3.07
2022-08-22T09:27:03.677Z,3.70
2022-08-22T09:30:11.553Z,3.90
2022-08-22T09:32:54.568Z,3.60
2022-08-22T09:35:27.930Z,2.93
2022-08-22T09:38:28.434Z,3.43
2022-08-22T09:41:17.662Z,3.23
2022-08-22T09:43:57.809Z,3.67
2022-08-22T09:47:06.906Z,3.33
2022-08-22T09:49:48.195Z,3.43
2022-08-22T09:52:48.220Z,3.23
2022-08-22T09:55:52.655Z,3.30
2022-08-22T09:58:41.536Z,3.30
2022-08-22T10:01:32.783Z,3.30
2022-08-22T10:04:14.596Z,3.40
2022-08-22T10:06:59.445Z,4.03
2022-08-22T10:09:33.811Z,3.60
2022-08-22T10:12:06.866Z,3.90
2022-08-22T10:14:51.366Z,3.63
2022-08-22T10:17:25.782Z,4.20
2022-08-22T10:20:22.908Z,3.37
2022-08-22T10:23:05.313Z,4.23
2022-08-22T10:25:42.144Z,3.80
2022-08-22T10:28:14.765Z,4.00
2022-08-22T10:31:15.526Z,3.80
2022-08-22T10:34:08.018Z,3.87
2022-08-22T10:37:12.024Z,4.23
2022-08-22T10:39:47.957Z,4.87
2022-08-22T10:42:23.184Z,3.97
2022-08-22T10:45:36.027Z,4.70
2022-08-22T10:48:09.782Z,4.10
2022-08-22T10:50:44.747Z,4.07
2022-08-22T10:53:34.743Z,3.27
2022-08-22T10:56:21.394Z,3.70
2022-08-22T10:58:55.935Z,4.20
2022-08-22T11:01:38.504Z,5.47
2022-08-22T11:04:47.347Z,3.87
2022-08-22T11:07:37.959Z,4.17
2022-08-22T11:10:21.251Z,4.57
2022-08-22T11:13:16.474Z,4.70
2022-08-22T11:15:58.443Z,4.60
2022-08-22T11:18:28.130Z,3.90
2022-08-22T11:21:29.076Z,4.00
2022-08-22T11:24:17.427Z,3.97
2022-08-22T11:27:07.366Z,3.40
2022-08-22T11:29:50.251Z,3.90
2022-08-22T11:32:30.074Z,3.60
2022-08-22T11:35:09.208Z,4.13
2022-08-22T11:37:56.271Z,3.93
2022-08-22T11:40:48.392Z,4.13
2022-08-22T11:43:33.449Z,4.57
2022-08-22T11:46:23.448Z,3.43
2022-08-22T11:49:10.825Z,3.50
2022-08-22T11:51:58.704Z,4.00
2022-08-22T11:54:43.896Z,4.00
2022-08-22T11:57:20.179Z,3.80
2022-08-22T11:59:53.320Z,3.80
2022-08-22T12:02:55.192Z,3.50
2022-08-22T12:05:27.191Z,3.57
2022-08-22T12:08:13.807Z,3.20
2022-08-22T12:10:52.696Z,3.73
2022-08-22T12:13:49.951Z,3.20
2022-08-22T12:16:48.799Z,3.50
2022-08-22T12:19:42.106Z,3.47
2022-08-22T12:22:56.198Z,3.30
2022-08-22T12:25:44.441Z,3.30
2022-08-22T12:28:15.759Z,3.47
2022-08-22T12:31:33.345Z,3.20
2022-08-22T12:34:28.945Z,4.20
2022-08-22T12:37:32.995Z,3.43
2022-08-22T12:40:58.139Z,3.60
2022-08-22T12:43:27.254Z,3.40
2022-08-22T12:46:20.297Z,3.90
2022-08-22T12:49:07.789Z,3.60
2022-08-22T12:52:08.701Z,3.43
2022-08-22T12:54:56.497Z,3.10
2022-08-22T12:57:46.211Z,3.53
2022-08-22T13:00:31.844Z,4.03
2022-08-22T13:03:03.939Z,3.73
2022-08-22T13:05:40.449Z,3.20
2022-08-22T13:08:13.690Z,3.60
2022-08-22T13:10:51.954Z,3.00
2022-08-22T13:13:56.188Z,3.10
2022-08-22T13:16:24.891Z,3.20
2022-08-22T13:18:55.996Z,3.33
2022-08-22T13:21:34.570Z,3.47
2022-08-22T13:24:38.817Z,3.33
2022-08-22T13:27:14.955Z,3.47
2022-08-22T13:29:51.872Z,2.83
2022-08-22T13:32:31.046Z,3.00
2022-08-22T13:35:00.002Z,3.63
2022-08-22T13:37:36.378Z,3.40
2022-08-22T13:40:08.804Z,3.67
2022-08-22T13:42:43.947Z,3.30
2022-08-22T13:45:23.927Z,3.40
2022-08-22T13:47:57.186Z,3.20
2022-08-22T13:50:27.574Z,3.70
2022-08-22T13:53:08.136Z,3.00
2022-08-22T13:55:44.565Z,3.27
2022-08-22T13:58:38.505Z,3.17
2022-08-22T14:01:25.413Z,3.50
2022-08-22T14:03:54.767Z,4.40
2022-08-22T14:06:37.703Z,3.83
2022-08-22T14:09:17.425Z,3.93
2022-08-22T14:12:24.461Z,3.40
2022-08-22T14:14:59.428Z,3.40
2022-08-22T14:17:42.722Z,3.60
2022-08-22T14:20:12.627Z,2.67
2022-08-22T14:22:45.849Z,4.07
2022-08-22T14:25:23.011Z,3.63
2022-08-22T14:27:57.979Z,3.23
2022-08-22T14:30:29.892Z,3.27
2022-08-22T14:33:05.229Z,3.87
2022-08-22T14:35:37.910Z,2.60
2022-08-22T14:38:35.217Z,3.33
2022-08-22T14:41:24.354Z,3.10
2022-08-22T14:44:05.439Z,2.93
2022-08-22T14:46:49.738Z,2.53
2022-08-22T14:49:19.144Z,3.00
2022-08-22T14:51:54.732Z,2.80
2022-08-22T14:54:23.342Z,2.87
2022-08-22T14:56:57.100Z,3.20
2022-08-22T14:59:32.393Z,3.13
2022-08-22T15:02:06.103Z,3.00
2022-08-22T15:04:40.440Z,2.53
2022-08-22T15:07:09.623Z,3.60
2022-08-22T15:10:06.167Z,3.37
2022-08-22T15:12:36.807Z,3.30
2022-08-22T15:15:12.801Z,2.53
2022-08-22T15:17:44.810Z,2.97
2022-08-22T15:20:27.740Z,3.63
2022-08-22T15:22:58.067Z,2.70
2022-08-22T15:25:33.465Z,3.20
2022-08-22T15:28:20.454Z,2.83
2022-08-22T15:31:03.466Z,2.90
2022-08-22T15:33:45.378Z,2.87
2022-08-22T15:36:20.962Z,3.50
2022-08-22T15:38:53.478Z,3.07
2022-08-22T15:41:36.210Z,3.33
2022-08-22T15:44:15.048Z,2.63
2022-08-22T15:47:04.561Z,3.10
2022-08-22T15:49:36.526Z,3.13
2022-08-22T15:52:03.990Z,3.00
2022-08-22T15:54:51.438Z,3.40
2022-08-22T15:57:40.040Z,3.17
2022-08-22T16:00:45.111Z,3.03
2022-08-22T16:03:28.249Z,2.70
2022-08-22T16:06:00.099Z,2.70
2022-08-22T16:08:44.130Z,3.23
2022-08-22T16:11:33.445Z,3.00
2022-08-22T16:14:23.529Z,3.23
2022-08-22T16:16:50.985Z,3.27
2022-08-22T16:19:23.671Z,3.10
2022-08-22T16:21:56.046Z,3.60
2022-08-22T16:24:22.338Z,3.33
2022-08-22T16:26:49.215Z,2.87
2022-08-22T16:29:41.270Z,2.97
2022-08-22T16:32:11.009Z,3.07
2022-08-22T16:34:37.322Z,3.50
2022-08-22T16:37:03.648Z,2.90
2022-08-22T16:40:01.425Z,3.10
2022-08-22T16:42:36.835Z,2.50
2022-08-22T16:45:05.999Z,3.00
2022-08-22T16:47:41.695Z,2.60
2022-08-22T16:50:22.989Z,3.30
2022-08-22T16:53:11.054Z,3.10
2022-08-22T16:55:43.133Z,3.10
2022-08-22T16:58:40.077Z,3.90
2022-08-22T17:01:50.417Z,3.47
2022-08-22T17:04:54.617Z,3.07
2022-08-22T17:07:44.198Z,3.50
2022-08-22T17:10:28.776Z,2.63
2022-08-22T17:13:14.027Z,3.00
2022-08-22T17:16:10.025Z,2.70
2022-08-22T17:18:45.059Z,2.40
2022-08-22T17:21:26.243Z,2.97
2022-08-22T17:24:32.399Z,2.37
2022-08-22T17:27:06.043Z,2.90
2022-08-22T17:30:06.880Z,3.37
2022-08-22T17:32:33.425Z,2.67
2022-08-22T17:35:24.741Z,2.90
2022-08-22T17:38:00.142Z,2.80
2022-08-22T17:40:36.899Z,3.20
2022-08-22T17:43:11.967Z,3.53
2022-08-22T17:46:19.234Z,4.10
2022-08-22T17:48:59.271Z,3.30
2022-08-22T17:51:56.581Z,3.43
2022-08-22T17:54:30.633Z,3.50
2022-08-22T17:57:14.452Z,3.63
2022-08-22T17:59:53.387Z,3.97
2022-08-22T18:02:31.529Z,4.70
2022-08-22T18:05:07.169Z,6.33
2022-08-22T18:07:44.807Z,5.03
2022-08-22T18:10:17.213Z,4.33
2022-08-22T18:13:01.389Z,4.50
2022-08-22T18:15:52.039Z,4.97
2022-08-22T18:18:39.030Z,4.30
2022-08-22T18:21:20.447Z,3.77
2022-08-22T18:23:58.965Z,3.47
2022-08-22T18:26:47.248Z,4.83
2022-08-22T18:29:16.348Z,4.03
2022-08-22T18:32:01.253Z,4.27
2022-08-22T18:34:40.686Z,4.00
2022-08-22T18:37:20.801Z,5.30
2022-08-22T18:39:56.076Z,4.33
2022-08-22T18:42:25.578Z,3.70
2022-08-22T18:44:51.939Z,4.20
2022-08-22T18:47:35.008Z,3.53
2022-08-22T18:50:24.351Z,3.67
2022-08-22T18:52:51.191Z,3.77
2022-08-22T18:55:30.929Z,4.07
2022-08-22T18:58:12.652Z,4.40
2022-08-22T19:00:55.762Z,4.77
2022-08-22T19:03:43.982Z,4.63
2022-08-22T19:06:32.282Z,3.90
2022-08-22T19:09:20.722Z,4.07
2022-08-22T19:12:07.316Z,4.43
2022-08-22T19:15:10.675Z,4.50
2022-08-22T19:17:59.723Z,3.93
2022-08-22T19:20:55.153Z,3.90
2022-08-22T19:23:37.275Z,3.83
2022-08-22T19:26:30.977Z,3.87
2022-08-22T19:29:10.494Z,4.20
2022-08-22T19:31:41.144Z,6.67
2022-08-22T19:34:25.880Z,4.47
2022-08-22T19:37:11.345Z,4.27
2022-08-22T19:40:01.110Z,4.50
2022-08-22T19:42:34.571Z,4.50
2022-08-22T19:45:19.292Z,4.13
2022-08-22T19:47:57.016Z,4.73
2022-08-22T19:50:26.169Z,4.97
2022-08-22T19:53:05.511Z,5.20
2022-08-22T19:55:38.026Z,5.17
2022-08-22T19:58:32.811Z,6.80
2022-08-22T20:01:09.798Z,3.97
2022-08-22T20:04:06.028Z,5.07
2022-08-22T20:06:44.700Z,7.57
2022-08-22T20:09:11.441Z,7.43
2022-08-22T20:11:56.536Z,5.60
2022-08-22T20:14:30.618Z,4.93
2022-08-22T20:17:13.142Z,3.77
2022-08-22T20:22:58.206Z,4.40
2022-08-22T20:25:42.468Z,4.37
2022-08-22T20:28:47.437Z,4.57
2022-08-22T20:31:23.233Z,4.30
2022-08-22T20:33:57.147Z,4.10
2022-08-22T20:36:27.880Z,5.03
2022-08-22T20:39:01.644Z,4.80
2022-08-22T20:41:33.261Z,3.93
2022-08-22T20:44:16.824Z,4.20
2022-08-22T20:47:03.115Z,3.83
2022-08-22T20:49:41.931Z,3.60
2022-08-22T20:52:20.381Z,4.00
2022-08-22T20:55:20.697Z,4.50
2022-08-22T20:57:51.815Z,4.53
2022-08-22T21:00:40.540Z,4.80
2022-08-22T21:03:24.367Z,4.80
2022-08-22T21:05:50.904Z,3.97
2022-08-22T21:08:26.385Z,4.00
2022-08-22T21:11:40.123Z,4.27
2022-08-22T21:14:24.634Z,4.20
2022-08-22T21:16:52.967Z,4.50
2022-08-22T21:19:24.862Z,4.47
2022-08-22T21:21:51.476Z,4.80
2022-08-22T21:24:17.912Z,5.20
2022-08-22T21:26:58.720Z,4.53
2022-08-22T21:29:32.436Z,4.93
2022-08-22T21:32:16.683Z,3.80
2022-08-22T21:34:47.690Z,4.33
2022-08-22T21:37:18.020Z,4.90
2022-08-22T21:39:47.905Z,4.10
2022-08-22T21:42:26.615Z,4.67
2022-08-22T21:45:02.372Z,6.57
2022-08-22T21:47:30.773Z,5.27
2022-08-22T21:50:13.249Z,3.97
2022-08-22T21:52:44.010Z,4.47
2022-08-22T21:55:42.946Z,3.87
2022-08-22T21:58:12.622Z,4.10
2022-08-22T22:00:48.951Z,4.83
2022-08-22T22:03:18.222Z,5.00
2022-08-22T22:05:44.865Z,5.23
2022-08-22T22:08:11.679Z,5.23
2022-08-22T22:10:43.240Z,5.37
2022-08-22T22:13:10.376Z,5.00
2022-08-22T22:15:45.041Z,5.40
2022-08-22T22:18:14.199Z,4.67
2022-08-22T22:20:41.459Z,4.67
2022-08-22T22:23:07.896Z,4.90
2022-08-22T22:25:40.210Z,5.00
2022-08-22T22:28:21.640Z,4.50
2022-08-22T22:30:55.717Z,4.53
2022-08-22T22:33:25.698Z,6.90
2022-08-22T22:35:54.434Z,5.53
2022-08-22T22:38:24.049Z,4.57
2022-08-22T22:40:51.907Z,5.30
2022-08-22T22:43:18.706Z,4.70
2022-08-22T22:45:45.116Z,4.80
2022-08-22T22:48:11.609Z,5.10
2022-08-22T22:50:44.101Z,5.57
2022-08-22T22:53:11.497Z,5.37
2022-08-22T22:55:47.941Z,4.83
2022-08-22T22:58:26.782Z,5.13
2022-08-22T23:00:53.278Z,5.83
2022-08-22T23:03:19.669Z,4.90
2022-08-22T23:05:45.996Z,4.60
2022-08-22T23:08:12.456Z,5.30
2022-08-22T23:10:38.799Z,5.27
2022-08-22T23:13:06.044Z,4.97
2022-08-22T23:15:32.409Z,4.70
2022-08-22T23:17:58.945Z,5.10
2022-08-22T23:20:25.416Z,4.60
2022-08-22T23:22:51.769Z,5.20
2022-08-22T23:25:18.182Z,6.20
2022-08-22T23:27:44.684Z,11.53
2022-08-22T23:30:18.452Z,6.00
2022-08-22T23:32:44.790Z,5.80
2022-08-22T23:35:11.254Z,5.60
2022-08-22T23:37:37.587Z,5.27
2022-08-22T23:40:07.257Z,5.00
2022-08-22T23:42:33.656Z,5.80
2022-08-22T23:45:00.043Z,4.80
2022-08-22T23:47:26.403Z,5.20
2022-08-22T23:49:52.714Z,5.37
2022-08-22T23:52:19.144Z,5.93
2022-08-22T23:54:46.510Z,5.23
2022-08-22T23:57:13.525Z,5.57
2022-08-22T23:59:48.480Z,6.07
